createdAt,value
2022-10-31T00:01:38.093Z,96150.00
2022-10-31T00:07:05.936Z,96154.00
2022-10-31T00:12:33.842Z,96155.00
2022-10-31T00:18:03.912Z,96152.00
2022-10-31T00:23:32.187Z,96154.00
2022-10-31T00:29:01.008Z,96150.00
2022-10-31T00:34:28.777Z,96142.00
2022-10-31T00:39:56.606Z,96137.00
2022-10-31T00:45:24.591Z,96136.00
2022-10-31T00:50:52.525Z,96136.00
2022-10-31T00:56:21.441Z,96135.00
2022-10-31T01:01:49.539Z,96136.00
2022-10-31T01:07:19.524Z,96130.00
2022-10-31T01:12:50.606Z,96128.00
2022-10-31T01:18:19.489Z,96129.00
2022-10-31T01:23:47.478Z,96125.00
2022-10-31T01:29:15.325Z,96130.00
2022-10-31T01:34:43.046Z,96133.00
2022-10-31T01:40:11.410Z,96139.00
2022-10-31T01:45:39.301Z,96134.00
2022-10-31T01:51:08.238Z,96128.00
2022-10-31T01:56:40.943Z,96125.00
2022-10-31T02:02:09.238Z,96128.00
2022-10-31T02:08:22.046Z,96121.00
2022-10-31T02:13:51.844Z,96123.00
2022-10-31T02:20:05.723Z,96126.00
2022-10-31T02:25:39.140Z,96123.00
2022-10-31T02:31:37.335Z,96130.00
2022-10-31T02:37:10.651Z,96126.00
2022-10-31T02:48:45.685Z,96130.00
2022-10-31T02:54:28.761Z,96129.00
2022-10-31T03:00:04.584Z,96124.00
2022-10-31T03:06:24.506Z,96118.00
2022-10-31T03:12:08.413Z,96121.00
2022-10-31T03:17:56.782Z,96128.00
2022-10-31T03:23:26.712Z,96130.00
2022-10-31T03:29:08.223Z,96131.00
2022-10-31T03:34:43.021Z,96130.00
2022-10-31T03:40:13.645Z,96125.00
2022-10-31T03:45:47.087Z,96120.00
2022-10-31T03:51:29.618Z,96118.00
2022-10-31T03:57:22.052Z,96123.00
2022-10-31T04:03:07.703Z,96129.00
2022-10-31T04:08:58.436Z,96126.00
2022-10-31T04:14:29.215Z,96126.00
2022-10-31T04:20:01.603Z,96128.00
2022-10-31T04:25:30.684Z,96136.00
2022-10-31T04:31:01.209Z,96124.00
2022-10-31T04:36:31.261Z,96134.00
2022-10-31T04:41:59.597Z,96138.00
2022-10-31T04:47:27.560Z,96142.00
2022-10-31T04:52:55.776Z,96137.00
2022-10-31T04:58:28.612Z,96139.00
2022-10-31T05:03:56.386Z,96133.00
2022-10-31T05:09:25.092Z,96127.00
2022-10-31T05:14:54.131Z,96135.00
2022-10-31T05:21:00.014Z,96132.00
2022-10-31T05:26:38.980Z,96115.00
2022-10-31T05:32:06.882Z,96114.00
2022-10-31T05:38:04.342Z,96110.00
2022-10-31T05:43:32.801Z,96112.00
2022-10-31T05:49:03.051Z,96109.00
2022-10-31T05:54:49.481Z,96121.00
2022-10-31T06:00:18.946Z,96109.00
2022-10-31T06:05:52.441Z,96117.00
2022-10-31T06:11:25.586Z,96112.00
2022-10-31T06:17:05.190Z,96117.00
2022-10-31T06:22:50.823Z,96114.00
2022-10-31T06:28:19.489Z,96121.00
2022-10-31T06:33:57.772Z,96122.00
2022-10-31T06:39:25.710Z,96122.00
2022-10-31T06:44:54.516Z,96126.00
2022-10-31T06:50:31.307Z,96115.00
2022-10-31T06:55:59.502Z,96119.00
2022-10-31T07:01:29.076Z,96124.00
2022-10-31T07:06:56.921Z,96124.00
2022-10-31T07:12:25.167Z,96129.00
2022-10-31T07:18:07.583Z,96129.00
2022-10-31T07:23:36.153Z,96137.00
2022-10-31T07:29:24.326Z,96133.00
2022-10-31T07:34:52.142Z,96140.00
2022-10-31T07:40:25.611Z,96123.00
2022-10-31T07:45:55.350Z,96137.00
2022-10-31T07:51:40.541Z,96138.00
2022-10-31T07:57:13.485Z,96132.00
2022-10-31T08:02:41.504Z,96135.00
2022-10-31T08:08:32.259Z,96126.00
2022-10-31T08:14:03.910Z,96122.00
2022-10-31T08:19:31.697Z,96117.00
2022-10-31T08:24:59.616Z,96112.00
2022-10-31T08:30:35.074Z,96109.00
2022-10-31T08:36:23.646Z,96101.00
2022-10-31T08:41:54.406Z,96096.00
2022-10-31T08:47:22.373Z,96085.00
2022-10-31T08:53:04.838Z,96089.00
2022-10-31T08:58:39.208Z,96085.00
2022-10-31T09:04:08.621Z,96080.00
2022-10-31T09:09:37.470Z,96071.00
2022-10-31T09:15:07.523Z,96069.00
2022-10-31T09:21:11.029Z,96065.00
2022-10-31T09:26:38.876Z,96057.00
2022-10-31T09:32:19.709Z,96056.00
2022-10-31T09:37:48.136Z,96055.00
2022-10-31T09:43:47.841Z,96047.00
2022-10-31T09:49:44.081Z,96045.00
2022-10-31T09:55:24.419Z,96046.00
2022-10-31T10:00:55.788Z,96041.00
2022-10-31T10:06:30.582Z,96029.00
2022-10-31T10:12:25.406Z,96039.00
2022-10-31T10:18:43.055Z,96034.00
2022-10-31T10:24:48.117Z,96028.00
2022-10-31T10:30:50.066Z,96034.00
2022-10-31T10:37:19.136Z,96027.00
2022-10-31T10:43:23.852Z,96023.00
2022-10-31T10:49:10.216Z,96022.00
2022-10-31T10:54:50.085Z,96013.00
2022-10-31T11:00:31.355Z,96011.00
2022-10-31T11:05:59.887Z,96001.00
2022-10-31T11:11:31.933Z,95998.00
2022-10-31T11:17:22.176Z,95985.00
2022-10-31T11:22:50.504Z,95985.00
2022-10-31T11:28:18.466Z,95973.00
2022-10-31T11:33:49.029Z,95978.00
2022-10-31T11:39:24.618Z,95967.00
2022-10-31T11:44:55.002Z,95972.00
2022-10-31T11:50:37.845Z,95960.00
2022-10-31T11:56:15.573Z,95952.00
2022-10-31T12:01:50.585Z,95947.00
2022-10-31T12:07:18.678Z,95945.00
2022-10-31T12:13:10.190Z,95943.00
2022-10-31T12:18:53.543Z,95934.00
2022-10-31T12:24:30.364Z,95932.00
2022-10-31T12:30:21.889Z,95927.00
2022-10-31T12:36:28.536Z,95916.00
2022-10-31T12:42:17.675Z,95913.00
2022-10-31T12:48:26.674Z,95909.00
2022-10-31T12:54:42.758Z,95896.00
2022-10-31T13:00:17.426Z,95890.00
2022-10-31T13:05:53.350Z,95891.00
2022-10-31T13:11:38.408Z,95870.00
2022-10-31T13:17:07.778Z,95870.00
2022-10-31T13:22:36.826Z,95861.00
2022-10-31T13:28:30.330Z,95854.00
2022-10-31T13:34:04.981Z,95855.00
2022-10-31T13:39:47.130Z,95844.00
2022-10-31T13:45:24.822Z,95845.00
2022-10-31T13:51:09.024Z,95843.00
2022-10-31T13:56:37.099Z,95844.00
2022-10-31T14:02:18.068Z,95835.00
2022-10-31T14:07:47.821Z,95837.00
2022-10-31T14:13:25.304Z,95835.00
2022-10-31T14:19:15.091Z,95824.00
2022-10-31T14:24:42.994Z,95815.00
2022-10-31T14:30:21.137Z,95816.00
2022-10-31T14:36:20.100Z,95814.00
2022-10-31T14:42:09.959Z,95802.00
2022-10-31T14:47:55.572Z,95801.00
2022-10-31T14:53:34.901Z,95794.00
2022-10-31T14:59:15.980Z,95786.00
2022-10-31T15:04:46.010Z,95777.00
2022-10-31T15:10:33.244Z,95782.00
2022-10-31T15:16:02.251Z,95770.00
2022-10-31T15:21:30.564Z,95774.00
2022-10-31T15:27:03.817Z,95762.00
2022-10-31T15:32:33.889Z,95760.00
2022-10-31T15:38:02.888Z,95764.00
2022-10-31T15:43:38.961Z,95758.00
2022-10-31T15:49:28.003Z,95751.00
2022-10-31T15:55:20.019Z,95763.00
2022-10-31T16:01:06.936Z,95748.00
2022-10-31T16:06:35.959Z,95755.00
2022-10-31T16:12:04.865Z,95751.00
2022-10-31T16:17:33.333Z,95756.00
2022-10-31T16:23:02.113Z,95750.00
2022-10-31T16:28:33.096Z,95756.00
2022-10-31T16:34:15.186Z,95757.00
2022-10-31T16:39:42.907Z,95763.00
2022-10-31T16:45:22.167Z,95768.00
2022-10-31T16:50:51.649Z,95762.00
2022-10-31T16:56:29.012Z,95768.00
2022-10-31T17:01:57.273Z,95761.00
2022-10-31T17:07:25.747Z,95766.00
2022-10-31T17:12:53.964Z,95773.00
2022-10-31T17:18:27.102Z,95773.00
2022-10-31T17:23:55.569Z,95767.00
2022-10-31T17:29:23.371Z,95769.00
2022-10-31T17:34:51.049Z,95773.00
2022-10-31T17:40:21.888Z,95765.00
2022-10-31T17:45:49.787Z,95770.00
2022-10-31T17:51:17.782Z,95757.00
2022-10-31T17:56:45.765Z,95750.00
2022-10-31T18:02:13.863Z,95751.00
2022-10-31T18:07:41.799Z,95746.00
2022-10-31T18:13:09.662Z,95749.00
2022-10-31T18:18:37.558Z,95745.00
2022-10-31T18:24:06.389Z,95749.00
2022-10-31T18:29:34.439Z,95753.00
2022-10-31T18:35:02.195Z,95741.00
2022-10-31T18:40:30.117Z,95741.00
2022-10-31T18:46:05.952Z,95739.00
2022-10-31T18:51:34.025Z,95742.00
2022-10-31T18:57:01.871Z,95736.00
2022-10-31T19:02:29.661Z,95740.00
2022-10-31T19:07:57.484Z,95719.00
2022-10-31T19:13:25.296Z,95729.00
2022-10-31T19:18:58.723Z,95722.00
2022-10-31T19:24:26.577Z,95730.00
2022-10-31T19:29:54.865Z,95722.00
2022-10-31T19:35:22.639Z,95734.00
2022-10-31T19:40:56.805Z,95725.00
2022-10-31T19:46:51.749Z,95731.00
2022-10-31T19:52:13.211Z,95723.00
2022-10-31T19:58:00.757Z,95722.00
2022-10-31T20:03:28.880Z,95724.00
2022-10-31T20:08:57.342Z,95727.00
2022-10-31T20:14:25.211Z,95728.00
2022-10-31T20:19:52.957Z,95726.00
2022-10-31T20:25:21.004Z,95719.00
2022-10-31T20:30:48.849Z,95721.00
2022-10-31T20:36:21.264Z,95725.00
2022-10-31T20:41:49.065Z,95726.00
2022-10-31T20:47:19.496Z,95737.00
2022-10-31T20:52:50.342Z,95737.00
2022-10-31T20:58:18.206Z,95736.00
2022-10-31T21:03:46.934Z,95736.00
2022-10-31T21:09:14.932Z,95738.00
2022-10-31T21:14:43.064Z,95730.00
2022-10-31T21:20:11.475Z,95730.00
2022-10-31T21:25:42.091Z,95727.00
2022-10-31T21:31:14.077Z,95735.00
2022-10-31T21:36:42.408Z,95734.00
2022-10-31T21:42:10.515Z,95726.00
2022-10-31T21:47:38.587Z,95732.00
2022-10-31T21:53:26.386Z,95726.00
2022-10-31T21:58:55.076Z,95718.00
2022-10-31T22:04:23.043Z,95714.00
2022-10-31T22:09:51.149Z,95711.00
2022-10-31T22:15:23.010Z,95705.00
2022-10-31T22:20:50.845Z,95698.00
2022-10-31T22:26:19.483Z,95705.00
2022-10-31T22:31:53.378Z,95695.00
2022-10-31T22:37:25.175Z,95694.00
2022-10-31T22:42:53.195Z,95690.00
2022-10-31T22:48:21.037Z,95682.00
2022-10-31T22:53:49.657Z,95689.00
2022-10-31T22:59:17.719Z,95694.00
2022-10-31T23:04:45.627Z,95699.00
2022-10-31T23:10:13.465Z,95699.00
2022-10-31T23:15:41.246Z,95690.00
2022-10-31T23:21:09.692Z,95686.00
2022-10-31T23:26:58.131Z,95688.00
2022-10-31T23:32:33.921Z,95692.00
2022-10-31T23:38:02.047Z,95701.00
2022-10-31T23:43:30.137Z,95686.00
2022-10-31T23:48:58.046Z,95683.00
2022-10-31T23:54:27.130Z,95696.00
2022-10-31T23:59:55.011Z,95687.00
